sensor_id;sensor_type;location;lat;lon;timestamp;pressure;altitude;pressure_sealevel;temperature
41710;BMP280;59402;48.396;-4.472;2022-08-19T00:01:38;101339.16;;;19.98
41710;BMP280;59402;48.396;-4.472;2022-08-19T00:04:06;101332.34;;;19.97
41710;BMP280;59402;48.396;-4.472;2022-08-19T00:06:32;101334.38;;;20.10
41710;BMP280;59402;48.396;-4.472;2022-08-19T00:08:58;101336.25;;;19.93
41710;BMP280;59402;48.396;-4.472;2022-08-19T00:11:25;101336.25;;;19.93
41710;BMP280;59402;48.396;-4.472;2022-08-19T00:13:53;101332.94;;;20.07
41710;BMP280;59402;48.396;-4.472;2022-08-19T00:16:19;101331.75;;;20.17
41710;BMP280;59402;48.396;-4.472;2022-08-19T00:18:45;101331.09;;;20.16
41710;BMP280;59402;48.396;-4.472;2022-08-19T00:21:11;101339.03;;;20.22
41710;BMP280;59402;48.396;-4.472;2022-08-19T00:23:36;101339.03;;;20.22
41710;BMP280;59402;48.396;-4.472;2022-08-19T00:26:05;101339.16;;;19.98
41710;BMP280;59402;48.396;-4.472;2022-08-19T00:28:31;101331.19;;;20.00
41710;BMP280;59402;48.396;-4.472;2022-08-19T00:30:58;101335.25;;;20.02
41710;BMP280;59402;48.396;-4.472;2022-08-19T00:33:24;101332.53;;;20.18
41710;BMP280;59402;48.396;-4.472;2022-08-19T00:35:49;101334.84;;;20.13
41710;BMP280;59402;48.396;-4.472;2022-08-19T00:38:14;101339.53;;;20.17
41710;BMP280;59402;48.396;-4.472;2022-08-19T00:40:42;101334.22;;;20.11
41710;BMP280;59402;48.396;-4.472;2022-08-19T00:43:09;101331.50;;;20.27
41710;BMP280;59402;48.396;-4.472;2022-08-19T00:45:35;101334.22;;;20.33
41710;BMP280;59402;48.396;-4.472;2022-08-19T00:48:02;101342.09;;;20.25
41710;BMP280;59402;48.396;-4.472;2022-08-19T00:50:30;101338.78;;;20.09
41710;BMP280;59402;48.396;-4.472;2022-08-19T00:52:56;101327.19;;;20.19
41710;BMP280;59402;48.396;-4.472;2022-08-19T00:55:25;101338.47;;;20.04
41710;BMP280;59402;48.396;-4.472;2022-08-19T00:57:53;101333.91;;;20.06
41710;BMP280;59402;48.396;-4.472;2022-08-19T01:00:20;101310.97;;;20.10
41710;BMP280;59402;48.396;-4.472;2022-08-19T01:02:46;101327.06;;;20.13
41710;BMP280;59402;48.396;-4.472;2022-08-19T01:05:17;101318.22;;;20.22
41710;BMP280;59402;48.396;-4.472;2022-08-19T01:07:43;101316.84;;;20.04
41710;BMP280;59402;48.396;-4.472;2022-08-19T01:10:11;101312.81;;;20.01
41710;BMP280;59402;48.396;-4.472;2022-08-19T01:12:37;101306.19;;;19.99
41710;BMP280;59402;48.396;-4.472;2022-08-19T01:15:03;101305.13;;;20.08
41710;BMP280;59402;48.396;-4.472;2022-08-19T01:17:29;101305.09;;;20.16
41710;BMP280;59402;48.396;-4.472;2022-08-19T01:19:55;101305.78;;;20.10
41710;BMP280;59402;48.396;-4.472;2022-08-19T01:24:47;101302.13;;;20.18
41710;BMP280;59402;48.396;-4.472;2022-08-19T01:27:12;101308.44;;;20.24
41710;BMP280;59402;48.396;-4.472;2022-08-19T01:29:39;101308.09;;;20.27
41710;BMP280;59402;48.396;-4.472;2022-08-19T01:32:06;101315.38;;;20.09
41710;BMP280;59402;48.396;-4.472;2022-08-19T01:34:32;101305.09;;;20.16
41710;BMP280;59402;48.396;-4.472;2022-08-19T01:36:59;101300.41;;;20.11
41710;BMP280;59402;48.396;-4.472;2022-08-19T01:39:24;101299.91;;;20.16
41710;BMP280;59402;48.396;-4.472;2022-08-19T01:41:50;101295.25;;;20.03
41710;BMP280;59402;48.396;-4.472;2022-08-19T01:44:19;101292.31;;;20.06
41710;BMP280;59402;48.396;-4.472;2022-08-19T01:46:48;101297.63;;;20.13
41710;BMP280;59402;48.396;-4.472;2022-08-19T01:49:14;101296.66;;;20.14
41710;BMP280;59402;48.396;-4.472;2022-08-19T01:51:40;101297.63;;;19.90
41710;BMP280;59402;48.396;-4.472;2022-08-19T01:54:09;101299.06;;;19.93
41710;BMP280;59402;48.396;-4.472;2022-08-19T01:56:35;101295.84;;;19.83
41710;BMP280;59402;48.396;-4.472;2022-08-19T01:59:03;101292.03;;;20.01
41710;BMP280;59402;48.396;-4.472;2022-08-19T02:01:29;101297.22;;;20.01
41710;BMP280;59402;48.396;-4.472;2022-08-19T02:03:59;101294.38;;;19.88
41710;BMP280;59402;48.396;-4.472;2022-08-19T02:06:26;101282.59;;;19.70
41710;BMP280;59402;48.396;-4.472;2022-08-19T02:08:52;101271.50;;;19.84
41710;BMP280;59402;48.396;-4.472;2022-08-19T02:11:19;101268.44;;;19.81
41710;BMP280;59402;48.396;-4.472;2022-08-19T02:13:44;101261.88;;;19.92
41710;BMP280;59402;48.396;-4.472;2022-08-19T02:16:10;101274.75;;;19.86
41710;BMP280;59402;48.396;-4.472;2022-08-19T02:18:35;101272.22;;;20.00
41710;BMP280;59402;48.396;-4.472;2022-08-19T02:21:00;101278.81;;;19.81
41710;BMP280;59402;48.396;-4.472;2022-08-19T02:23:26;101280.59;;;19.88
41710;BMP280;59402;48.396;-4.472;2022-08-19T02:25:52;101280.38;;;19.59
41710;BMP280;59402;48.396;-4.472;2022-08-19T02:28:17;101278.53;;;19.68
41710;BMP280;59402;48.396;-4.472;2022-08-19T02:30:42;101281.38;;;19.88
41710;BMP280;59402;48.396;-4.472;2022-08-19T02:33:08;101293.38;;;19.89
41710;BMP280;59402;48.396;-4.472;2022-08-19T02:35:33;101302.22;;;19.73
41710;BMP280;59402;48.396;-4.472;2022-08-19T02:37:59;101294.38;;;19.88
41710;BMP280;59402;48.396;-4.472;2022-08-19T02:40:49;101294.38;;;19.88
41710;BMP280;59402;48.396;-4.472;2022-08-19T02:43:16;101306.16;;;19.69
41710;BMP280;59402;48.396;-4.472;2022-08-19T02:45:42;101294.50;;;19.57
41710;BMP280;59402;48.396;-4.472;2022-08-19T02:48:08;101295.75;;;19.69
41710;BMP280;59402;48.396;-4.472;2022-08-19T02:50:37;101305.16;;;19.70
41710;BMP280;59402;48.396;-4.472;2022-08-19T02:53:02;101303.31;;;19.86
41710;BMP280;59402;48.396;-4.472;2022-08-19T02:55:27;101315.53;;;19.78
41710;BMP280;59402;48.396;-4.472;2022-08-19T02:57:53;101301.41;;;19.80
41710;BMP280;59402;48.396;-4.472;2022-08-19T03:00:18;101307.88;;;19.84
41710;BMP280;59402;48.396;-4.472;2022-08-19T03:02:43;101311.63;;;19.74
41710;BMP280;59402;48.396;-4.472;2022-08-19T03:05:09;101313.72;;;19.78
41710;BMP280;59402;48.396;-4.472;2022-08-19T03:07:35;101313.72;;;19.78
41710;BMP280;59402;48.396;-4.472;2022-08-19T03:10:00;101313.72;;;19.78
41710;BMP280;59402;48.396;-4.472;2022-08-19T03:12:26;101313.72;;;19.78
41710;BMP280;59402;48.396;-4.472;2022-08-19T03:14:51;101313.72;;;19.78
41710;BMP280;59402;48.396;-4.472;2022-08-19T03:17:17;101313.72;;;19.78
41710;BMP280;59402;48.396;-4.472;2022-08-19T03:19:43;101313.72;;;19.78
41710;BMP280;59402;48.396;-4.472;2022-08-19T03:22:08;101313.72;;;19.78
41710;BMP280;59402;48.396;-4.472;2022-08-19T03:24:33;101313.72;;;19.78
41710;BMP280;59402;48.396;-4.472;2022-08-19T03:26:59;101313.72;;;19.78
41710;BMP280;59402;48.396;-4.472;2022-08-19T03:29:28;101313.72;;;19.78
41710;BMP280;59402;48.396;-4.472;2022-08-19T03:31:54;101313.72;;;19.78
41710;BMP280;59402;48.396;-4.472;2022-08-19T03:34:22;101313.72;;;19.78
41710;BMP280;59402;48.396;-4.472;2022-08-19T03:36:51;101313.72;;;19.78
41710;BMP280;59402;48.396;-4.472;2022-08-19T03:39:17;101313.72;;;19.78
41710;BMP280;59402;48.396;-4.472;2022-08-19T03:41:43;101315.78;;;19.98
41710;BMP280;59402;48.396;-4.472;2022-08-19T03:44:09;101315.78;;;19.98
41710;BMP280;59402;48.396;-4.472;2022-08-19T03:46:34;101305.78;;;19.87
41710;BMP280;59402;48.396;-4.472;2022-08-19T03:49:01;101305.78;;;19.87
41710;BMP280;59402;48.396;-4.472;2022-08-19T03:51:37;101305.78;;;19.87
41710;BMP280;59402;48.396;-4.472;2022-08-19T03:54:04;101305.78;;;19.87
41710;BMP280;59402;48.396;-4.472;2022-08-19T03:56:30;101305.78;;;19.87
41710;BMP280;59402;48.396;-4.472;2022-08-19T03:58:56;101305.78;;;19.87
41710;BMP280;59402;48.396;-4.472;2022-08-19T04:01:22;101305.78;;;19.87
41710;BMP280;59402;48.396;-4.472;2022-08-19T04:03:48;101314.94;;;20.28
41710;BMP280;59402;48.396;-4.472;2022-08-19T04:06:20;101314.94;;;20.28
41710;BMP280;59402;48.396;-4.472;2022-08-19T04:08:47;101314.94;;;20.28
41710;BMP280;59402;48.396;-4.472;2022-08-19T04:11:14;101314.94;;;20.28
41710;BMP280;59402;48.396;-4.472;2022-08-19T04:13:39;101314.94;;;20.28
41710;BMP280;59402;48.396;-4.472;2022-08-19T04:16:05;101333.53;;;20.17
41710;BMP280;59402;48.396;-4.472;2022-08-19T04:18:31;101333.13;;;19.98
41710;BMP280;59402;48.396;-4.472;2022-08-19T04:20:57;101333.13;;;19.98
41710;BMP280;59402;48.396;-4.472;2022-08-19T04:23:23;101333.13;;;19.98
41710;BMP280;59402;48.396;-4.472;2022-08-19T04:25:49;101309.81;;;19.90
41710;BMP280;59402;48.396;-4.472;2022-08-19T04:28:14;101310.09;;;19.95
41710;BMP280;59402;48.396;-4.472;2022-08-19T04:30:46;101313.19;;;19.98
41710;BMP280;59402;48.396;-4.472;2022-08-19T04:33:13;101304.75;;;19.96
41710;BMP280;59402;48.396;-4.472;2022-08-19T04:35:40;101311.22;;;20.00
41710;BMP280;59402;48.396;-4.472;2022-08-19T04:38:07;101311.13;;;19.86
41710;BMP280;59402;48.396;-4.472;2022-08-19T04:40:33;101310.34;;;19.70
41710;BMP280;59402;48.396;-4.472;2022-08-19T04:43:17;101310.34;;;19.70
41710;BMP280;59402;48.396;-4.472;2022-08-19T04:45:43;101312.56;;;19.88
41710;BMP280;59402;48.396;-4.472;2022-08-19T04:48:09;101320.06;;;20.14
41710;BMP280;59402;48.396;-4.472;2022-08-19T04:50:35;101329.31;;;20.16
41710;BMP280;59402;48.396;-4.472;2022-08-19T04:53:01;101333.06;;;20.14
41710;BMP280;59402;48.396;-4.472;2022-08-19T04:55:26;101333.78;;;20.00
41710;BMP280;59402;48.396;-4.472;2022-08-19T04:57:52;101335.59;;;19.91
41710;BMP280;59402;48.396;-4.472;2022-08-19T05:00:17;101333.66;;;19.93
41710;BMP280;59402;48.396;-4.472;2022-08-19T05:02:42;101335.50;;;19.77
41710;BMP280;59402;48.396;-4.472;2022-08-19T05:05:08;101326.22;;;19.75
41710;BMP280;59402;48.396;-4.472;2022-08-19T05:07:34;101332.44;;;19.82
41710;BMP280;59402;48.396;-4.472;2022-08-19T05:09:59;101322.97;;;19.88
41710;BMP280;59402;48.396;-4.472;2022-08-19T05:12:24;101327.59;;;19.71
41710;BMP280;59402;48.396;-4.472;2022-08-19T05:14:50;101331.94;;;19.70
41710;BMP280;59402;48.396;-4.472;2022-08-19T05:17:16;101325.38;;;19.52
41710;BMP280;59402;48.396;-4.472;2022-08-19T05:19:42;101325.38;;;19.52
41710;BMP280;59402;48.396;-4.472;2022-08-19T05:22:25;101315.44;;;19.55
41710;BMP280;59402;48.396;-4.472;2022-08-19T05:24:57;101315.00;;;19.52
41710;BMP280;59402;48.396;-4.472;2022-08-19T05:27:22;101312.34;;;19.60
41710;BMP280;59402;48.396;-4.472;2022-08-19T05:29:48;101317.63;;;19.44
41710;BMP280;59402;48.396;-4.472;2022-08-19T05:32:13;101317.63;;;19.44
41710;BMP280;59402;48.396;-4.472;2022-08-19T05:34:39;101317.63;;;19.44
41710;BMP280;59402;48.396;-4.472;2022-08-19T05:37:04;101317.63;;;19.44
41710;BMP280;59402;48.396;-4.472;2022-08-19T05:39:31;101318.00;;;19.17
41710;BMP280;59402;48.396;-4.472;2022-08-19T05:42:02;101318.00;;;19.17
41710;BMP280;59402;48.396;-4.472;2022-08-19T05:44:29;101318.00;;;19.17
41710;BMP280;59402;48.396;-4.472;2022-08-19T05:46:56;101312.53;;;19.05
41710;BMP280;59402;48.396;-4.472;2022-08-19T05:49:23;101312.53;;;19.05
41710;BMP280;59402;48.396;-4.472;2022-08-19T05:51:48;101304.09;;;18.95
41710;BMP280;59402;48.396;-4.472;2022-08-19T05:54:14;101304.09;;;18.95
41710;BMP280;59402;48.396;-4.472;2022-08-19T05:56:40;101304.09;;;18.95
41710;BMP280;59402;48.396;-4.472;2022-08-19T05:59:07;101304.09;;;18.95
41710;BMP280;59402;48.396;-4.472;2022-08-19T06:01:35;101304.09;;;18.95
41710;BMP280;59402;48.396;-4.472;2022-08-19T06:04:00;101304.09;;;18.95
41710;BMP280;59402;48.396;-4.472;2022-08-19T06:06:26;101304.09;;;18.95
41710;BMP280;59402;48.396;-4.472;2022-08-19T06:08:51;101304.09;;;18.95
41710;BMP280;59402;48.396;-4.472;2022-08-19T06:11:40;101304.09;;;18.95
41710;BMP280;59402;48.396;-4.472;2022-08-19T06:14:06;101304.09;;;18.95
41710;BMP280;59402;48.396;-4.472;2022-08-19T06:16:34;101304.09;;;18.95
41710;BMP280;59402;48.396;-4.472;2022-08-19T06:19:00;101304.09;;;18.95
41710;BMP280;59402;48.396;-4.472;2022-08-19T06:21:27;101304.09;;;18.95
41710;BMP280;59402;48.396;-4.472;2022-08-19T06:23:53;101304.09;;;18.95
41710;BMP280;59402;48.396;-4.472;2022-08-19T06:26:19;101304.09;;;18.95
41710;BMP280;59402;48.396;-4.472;2022-08-19T06:28:45;101304.09;;;18.95
41710;BMP280;59402;48.396;-4.472;2022-08-19T06:31:19;101304.09;;;18.95
41710;BMP280;59402;48.396;-4.472;2022-08-19T06:33:45;101304.09;;;18.95
41710;BMP280;59402;48.396;-4.472;2022-08-19T06:36:25;101304.09;;;18.95
41710;BMP280;59402;48.396;-4.472;2022-08-19T06:38:55;101304.09;;;18.95
41710;BMP280;59402;48.396;-4.472;2022-08-19T06:41:23;101304.09;;;18.95
41710;BMP280;59402;48.396;-4.472;2022-08-19T06:43:48;101304.09;;;18.95
41710;BMP280;59402;48.396;-4.472;2022-08-19T06:46:14;101304.09;;;18.95
41710;BMP280;59402;48.396;-4.472;2022-08-19T06:48:40;101304.09;;;18.95
41710;BMP280;59402;48.396;-4.472;2022-08-19T06:51:05;101304.09;;;18.95
41710;BMP280;59402;48.396;-4.472;2022-08-19T06:53:32;101304.09;;;18.95
41710;BMP280;59402;48.396;-4.472;2022-08-19T06:55:57;101304.09;;;18.95
41710;BMP280;59402;48.396;-4.472;2022-08-19T06:58:27;101304.09;;;18.95
41710;BMP280;59402;48.396;-4.472;2022-08-19T07:00:53;101304.09;;;18.95
41710;BMP280;59402;48.396;-4.472;2022-08-19T07:03:18;101304.09;;;18.95
41710;BMP280;59402;48.396;-4.472;2022-08-19T07:05:44;101304.09;;;18.95
41710;BMP280;59402;48.396;-4.472;2022-08-19T07:08:09;101304.09;;;18.95
41710;BMP280;59402;48.396;-4.472;2022-08-19T07:10:35;101304.09;;;18.95
41710;BMP280;59402;48.396;-4.472;2022-08-19T07:13:02;101304.09;;;18.95
41710;BMP280;59402;48.396;-4.472;2022-08-19T07:15:27;101304.09;;;18.95
41710;BMP280;59402;48.396;-4.472;2022-08-19T07:17:52;101304.09;;;18.95
41710;BMP280;59402;48.396;-4.472;2022-08-19T07:20:18;101304.09;;;18.95
41710;BMP280;59402;48.396;-4.472;2022-08-19T07:22:43;101304.09;;;18.95
41710;BMP280;59402;48.396;-4.472;2022-08-19T07:25:10;101304.09;;;18.95
41710;BMP280;59402;48.396;-4.472;2022-08-19T07:27:38;101304.09;;;18.95
41710;BMP280;59402;48.396;-4.472;2022-08-19T07:30:03;101304.09;;;18.95
41710;BMP280;59402;48.396;-4.472;2022-08-19T07:32:29;101304.09;;;18.95
41710;BMP280;59402;48.396;-4.472;2022-08-19T07:34:56;101304.09;;;18.95
41710;BMP280;59402;48.396;-4.472;2022-08-19T07:37:21;101304.09;;;18.95
41710;BMP280;59402;48.396;-4.472;2022-08-19T07:39:47;101304.09;;;18.95
41710;BMP280;59402;48.396;-4.472;2022-08-19T07:42:12;101304.09;;;18.95
41710;BMP280;59402;48.396;-4.472;2022-08-19T07:44:38;101304.09;;;18.95
41710;BMP280;59402;48.396;-4.472;2022-08-19T07:47:04;101304.09;;;18.95
41710;BMP280;59402;48.396;-4.472;2022-08-19T07:49:29;101304.09;;;18.95
41710;BMP280;59402;48.396;-4.472;2022-08-19T07:54:21;101304.09;;;18.95
41710;BMP280;59402;48.396;-4.472;2022-08-19T07:56:48;101304.09;;;18.95
41710;BMP280;59402;48.396;-4.472;2022-08-19T07:59:16;101304.09;;;18.95
41710;BMP280;59402;48.396;-4.472;2022-08-19T08:01:42;101304.09;;;18.95
41710;BMP280;59402;48.396;-4.472;2022-08-19T08:04:08;101304.09;;;18.95
41710;BMP280;59402;48.396;-4.472;2022-08-19T08:06:52;101304.09;;;18.95
41710;BMP280;59402;48.396;-4.472;2022-08-19T08:09:38;101304.09;;;18.95
41710;BMP280;59402;48.396;-4.472;2022-08-19T08:12:06;101304.09;;;18.95
41710;BMP280;59402;48.396;-4.472;2022-08-19T08:14:36;101304.09;;;18.95
41710;BMP280;59402;48.396;-4.472;2022-08-19T08:17:03;101304.09;;;18.95
41710;BMP280;59402;48.396;-4.472;2022-08-19T08:19:28;101304.09;;;18.95
41710;BMP280;59402;48.396;-4.472;2022-08-19T08:21:55;101304.09;;;18.95
41710;BMP280;59402;48.396;-4.472;2022-08-19T08:24:21;101304.09;;;18.95
41710;BMP280;59402;48.396;-4.472;2022-08-19T08:26:46;101304.09;;;18.95
41710;BMP280;59402;48.396;-4.472;2022-08-19T08:29:12;101304.09;;;18.95
41710;BMP280;59402;48.396;-4.472;2022-08-19T08:31:39;101304.09;;;18.95
41710;BMP280;59402;48.396;-4.472;2022-08-19T08:34:04;101304.09;;;18.95
41710;BMP280;59402;48.396;-4.472;2022-08-19T08:36:30;101304.09;;;18.95
41710;BMP280;59402;48.396;-4.472;2022-08-19T08:38:58;101304.09;;;18.95
41710;BMP280;59402;48.396;-4.472;2022-08-19T08:41:35;101304.09;;;18.95
41710;BMP280;59402;48.396;-4.472;2022-08-19T08:44:02;101304.09;;;18.95
41710;BMP280;59402;48.396;-4.472;2022-08-19T08:49:04;101304.09;;;18.95
41710;BMP280;59402;48.396;-4.472;2022-08-19T08:51:34;101304.09;;;18.95
41710;BMP280;59402;48.396;-4.472;2022-08-19T08:54:00;101304.09;;;18.95
41710;BMP280;59402;48.396;-4.472;2022-08-19T08:56:26;101304.09;;;18.95
41710;BMP280;59402;48.396;-4.472;2022-08-19T08:59:02;101304.09;;;18.95
41710;BMP280;59402;48.396;-4.472;2022-08-19T09:01:28;101304.09;;;18.95
41710;BMP280;59402;48.396;-4.472;2022-08-19T09:03:56;101304.09;;;18.95
41710;BMP280;59402;48.396;-4.472;2022-08-19T09:11:30;101304.09;;;18.95
41710;BMP280;59402;48.396;-4.472;2022-08-19T09:16:36;101304.09;;;18.95
41710;BMP280;59402;48.396;-4.472;2022-08-19T09:19:06;101502.59;;;20.39
41710;BMP280;59402;48.396;-4.472;2022-08-19T09:21:36;101502.59;;;20.39
41710;BMP280;59402;48.396;-4.472;2022-08-19T09:24:02;101502.59;;;20.39
41710;BMP280;59402;48.396;-4.472;2022-08-19T09:26:28;101502.59;;;20.39
41710;BMP280;59402;48.396;-4.472;2022-08-19T09:28:53;101502.59;;;20.39
41710;BMP280;59402;48.396;-4.472;2022-08-19T09:31:21;101502.59;;;20.39
41710;BMP280;59402;48.396;-4.472;2022-08-19T09:39:25;101502.59;;;20.39
41710;BMP280;59402;48.396;-4.472;2022-08-19T09:44:32;101502.59;;;20.39
41710;BMP280;59402;48.396;-4.472;2022-08-19T09:46:58;101525.06;;;20.32
41710;BMP280;59402;48.396;-4.472;2022-08-19T09:49:25;101512.03;;;20.40
41710;BMP280;59402;48.396;-4.472;2022-08-19T09:51:51;101500.34;;;20.74
41710;BMP280;59402;48.396;-4.472;2022-08-19T09:54:21;101500.34;;;20.74
41710;BMP280;59402;48.396;-4.472;2022-08-19T09:56:46;101500.34;;;20.74
41710;BMP280;59402;48.396;-4.472;2022-08-19T09:59:12;101500.34;;;20.74
41710;BMP280;59402;48.396;-4.472;2022-08-19T10:01:38;101534.09;;;21.85
41710;BMP280;59402;48.396;-4.472;2022-08-19T10:04:03;101534.09;;;21.85
41710;BMP280;59402;48.396;-4.472;2022-08-19T10:06:38;101564.69;;;21.77
41710;BMP280;59402;48.396;-4.472;2022-08-19T10:09:05;101559.53;;;21.69
41710;BMP280;59402;48.396;-4.472;2022-08-19T10:11:32;101562.47;;;21.66
41710;BMP280;59402;48.396;-4.472;2022-08-19T10:13:57;101567.47;;;21.75
41710;BMP280;59402;48.396;-4.472;2022-08-19T10:16:25;101572.00;;;21.59
41710;BMP280;59402;48.396;-4.472;2022-08-19T10:18:51;101574.88;;;21.64
41710;BMP280;59402;48.396;-4.472;2022-08-19T10:21:24;101578.09;;;21.52
41710;BMP280;59402;48.396;-4.472;2022-08-19T10:23:50;101579.94;;;21.65
41710;BMP280;59402;48.396;-4.472;2022-08-19T10:26:17;101584.97;;;21.67
41710;BMP280;59402;48.396;-4.472;2022-08-19T10:28:44;101606.75;;;21.52
41710;BMP280;59402;48.396;-4.472;2022-08-19T10:31:13;101606.09;;;21.72
41710;BMP280;59402;48.396;-4.472;2022-08-19T10:33:39;101590.78;;;22.05
41710;BMP280;59402;48.396;-4.472;2022-08-19T10:36:06;101599.47;;;22.20
41710;BMP280;59402;48.396;-4.472;2022-08-19T10:38:32;101592.22;;;22.08
41710;BMP280;59402;48.396;-4.472;2022-08-19T10:41:06;101583.47;;;22.23
41710;BMP280;59402;48.396;-4.472;2022-08-19T10:43:31;101593.91;;;22.23
41710;BMP280;59402;48.396;-4.472;2022-08-19T10:46:01;101607.03;;;22.29
41710;BMP280;59402;48.396;-4.472;2022-08-19T10:48:28;101603.91;;;21.97
41710;BMP280;59402;48.396;-4.472;2022-08-19T10:50:53;101619.84;;;22.02
41710;BMP280;59402;48.396;-4.472;2022-08-19T10:53:37;101616.88;;;22.05
41710;BMP280;59402;48.396;-4.472;2022-08-19T10:56:03;101612.59;;;22.12
41710;BMP280;59402;48.396;-4.472;2022-08-19T10:58:47;101604.69;;;22.20
41710;BMP280;59402;48.396;-4.472;2022-08-19T11:01:14;101603.34;;;22.24
41710;BMP280;59402;48.396;-4.472;2022-08-19T11:03:39;101591.31;;;22.23
41710;BMP280;59402;48.396;-4.472;2022-08-19T11:06:05;101587.59;;;22.18
41710;BMP280;59402;48.396;-4.472;2022-08-19T11:08:31;101608.56;;;22.02
41710;BMP280;59402;48.396;-4.472;2022-08-19T11:10:58;101602.47;;;21.95
41710;BMP280;59402;48.396;-4.472;2022-08-19T11:13:26;101613.13;;;22.22
41710;BMP280;59402;48.396;-4.472;2022-08-19T11:16:02;101619.19;;;22.37
41710;BMP280;59402;48.396;-4.472;2022-08-19T11:18:28;101618.53;;;22.92
41710;BMP280;59402;48.396;-4.472;2022-08-19T11:20:54;101612.09;;;23.09
41710;BMP280;59402;48.396;-4.472;2022-08-19T11:23:19;101610.06;;;23.46
41710;BMP280;59402;48.396;-4.472;2022-08-19T11:25:45;101622.84;;;23.55
41710;BMP280;59402;48.396;-4.472;2022-08-19T11:28:10;101622.28;;;23.60
41710;BMP280;59402;48.396;-4.472;2022-08-19T11:30:37;101628.31;;;23.81
41710;BMP280;59402;48.396;-4.472;2022-08-19T11:33:02;101618.34;;;23.70
41710;BMP280;59402;48.396;-4.472;2022-08-19T11:35:27;101620.94;;;23.91
41710;BMP280;59402;48.396;-4.472;2022-08-19T11:37:53;101610.38;;;24.05
41710;BMP280;59402;48.396;-4.472;2022-08-19T11:40:18;101560.03;;;23.97
41710;BMP280;59402;48.396;-4.472;2022-08-19T11:42:44;101502.56;;;23.76
41710;BMP280;59402;48.396;-4.472;2022-08-19T11:45:25;100118.13;;;24.38
41710;BMP280;59402;48.396;-4.472;2022-08-19T11:47:50;100937.22;;;24.80
41710;BMP280;59402;48.396;-4.472;2022-08-19T11:50:16;101042.28;;;24.96
41710;BMP280;59402;48.396;-4.472;2022-08-19T11:52:42;101066.75;;;25.21
41710;BMP280;59402;48.396;-4.472;2022-08-19T11:55:09;101034.66;;;24.88
41710;BMP280;59402;48.396;-4.472;2022-08-19T11:57:34;100862.25;;;25.34
41710;BMP280;59402;48.396;-4.472;2022-08-19T12:00:00;100946.50;;;25.79
41710;BMP280;59402;48.396;-4.472;2022-08-19T12:02:26;100948.19;;;26.27
41710;BMP280;59402;48.396;-4.472;2022-08-19T12:04:52;101002.97;;;26.23
41710;BMP280;59402;48.396;-4.472;2022-08-19T12:07:17;100870.53;;;26.37
41710;BMP280;59402;48.396;-4.472;2022-08-19T12:09:43;101031.97;;;26.82
41710;BMP280;59402;48.396;-4.472;2022-08-19T12:12:09;100975.19;;;26.81
41710;BMP280;59402;48.396;-4.472;2022-08-19T12:14:34;101062.28;;;26.95
41710;BMP280;59402;48.396;-4.472;2022-08-19T12:17:00;101036.00;;;27.76
41710;BMP280;59402;48.396;-4.472;2022-08-19T12:19:27;101056.34;;;27.00
41710;BMP280;59402;48.396;-4.472;2022-08-19T12:21:54;101073.41;;;26.44
41710;BMP280;59402;48.396;-4.472;2022-08-19T12:24:25;101165.69;;;25.93
41710;BMP280;59402;48.396;-4.472;2022-08-19T12:26:50;101197.25;;;25.43
41710;BMP280;59402;48.396;-4.472;2022-08-19T12:29:16;101202.69;;;26.09
41710;BMP280;59402;48.396;-4.472;2022-08-19T12:31:42;101106.56;;;27.39
41710;BMP280;59402;48.396;-4.472;2022-08-19T12:34:08;101084.28;;;27.12
41710;BMP280;59402;48.396;-4.472;2022-08-19T12:36:33;101067.03;;;27.16
41710;BMP280;59402;48.396;-4.472;2022-08-19T12:38:59;101096.84;;;28.36
41710;BMP280;59402;48.396;-4.472;2022-08-19T12:41:25;101172.50;;;29.36
41710;BMP280;59402;48.396;-4.472;2022-08-19T12:43:50;101163.25;;;29.94
41710;BMP280;59402;48.396;-4.472;2022-08-19T12:46:16;101181.66;;;29.89
41710;BMP280;59402;48.396;-4.472;2022-08-19T12:48:41;101188.09;;;29.82
41710;BMP280;59402;48.396;-4.472;2022-08-19T12:51:11;101192.56;;;30.25
41710;BMP280;59402;48.396;-4.472;2022-08-19T12:53:37;101168.00;;;31.26
41710;BMP280;59402;48.396;-4.472;2022-08-19T12:56:02;101150.78;;;32.02
41710;BMP280;59402;48.396;-4.472;2022-08-19T12:58:28;101142.16;;;32.21
41710;BMP280;59402;48.396;-4.472;2022-08-19T13:00:54;101146.91;;;32.19
41710;BMP280;59402;48.396;-4.472;2022-08-19T13:03:20;101134.91;;;31.76
41710;BMP280;59402;48.396;-4.472;2022-08-19T13:05:47;101171.03;;;31.34
41710;BMP280;59402;48.396;-4.472;2022-08-19T13:08:12;101172.44;;;31.42
41710;BMP280;59402;48.396;-4.472;2022-08-19T13:10:38;101192.81;;;30.77
41710;BMP280;59402;48.396;-4.472;2022-08-19T13:13:04;101175.63;;;31.44
41710;BMP280;59402;48.396;-4.472;2022-08-19T13:15:52;101168.09;;;32.19
41710;BMP280;59402;48.396;-4.472;2022-08-19T13:18:28;101140.53;;;33.26
41710;BMP280;59402;48.396;-4.472;2022-08-19T13:20:54;101152.41;;;32.94
41710;BMP280;59402;48.396;-4.472;2022-08-19T13:23:21;101204.22;;;30.83
41710;BMP280;59402;48.396;-4.472;2022-08-19T13:25:57;101189.63;;;30.59
41710;BMP280;59402;48.396;-4.472;2022-08-19T13:28:23;101219.41;;;30.06
41710;BMP280;59402;48.396;-4.472;2022-08-19T13:31:09;101230.59;;;29.97
41710;BMP280;59402;48.396;-4.472;2022-08-19T13:33:54;101215.50;;;30.95
41710;BMP280;59402;48.396;-4.472;2022-08-19T13:36:24;101211.59;;;30.81
41710;BMP280;59402;48.396;-4.472;2022-08-19T13:38:50;101224.63;;;30.50
41710;BMP280;59402;48.396;-4.472;2022-08-19T13:41:21;101235.75;;;29.75
41710;BMP280;59402;48.396;-4.472;2022-08-19T13:43:47;101238.66;;;29.35
41710;BMP280;59402;48.396;-4.472;2022-08-19T13:46:14;101231.31;;;29.65
41710;BMP280;59402;48.396;-4.472;2022-08-19T13:48:41;101216.34;;;30.79
41710;BMP280;59402;48.396;-4.472;2022-08-19T13:51:08;101232.69;;;30.11
41710;BMP280;59402;48.396;-4.472;2022-08-19T13:53:39;101239.03;;;29.82
41710;BMP280;59402;48.396;-4.472;2022-08-19T13:56:05;101228.84;;;30.02
41710;BMP280;59402;48.396;-4.472;2022-08-19T13:58:31;101247.28;;;29.58
41710;BMP280;59402;48.396;-4.472;2022-08-19T14:00:57;101249.16;;;29.46
41710;BMP280;59402;48.396;-4.472;2022-08-19T14:08:41;101233.56;;;30.00
41710;BMP280;59402;48.396;-4.472;2022-08-19T14:11:08;101231.81;;;30.22
41710;BMP280;59402;48.396;-4.472;2022-08-19T14:13:37;101218.50;;;30.66